sensor_id;sensor_type;location;lat;lon;timestamp;temperature;humidity
65374;SHT31;52070;53.760;9.678;2023-10-09T00:01:27;10.63;94.50
65374;SHT31;52070;53.760;9.678;2023-10-09T00:03:54;10.64;94.57
65374;SHT31;52070;53.760;9.678;2023-10-09T00:06:22;10.64;94.62
65374;SHT31;52070;53.760;9.678;2023-10-09T00:09:03;10.63;94.67
65374;SHT31;52070;53.760;9.678;2023-10-09T00:11:52;10.58;94.72
65374;SHT31;52070;53.760;9.678;2023-10-09T00:14:23;10.58;94.69
65374;SHT31;52070;53.760;9.678;2023-10-09T00:16:52;10.56;94.70
65374;SHT31;52070;53.760;9.678;2023-10-09T00:19:31;10.56;94.81
65374;SHT31;52070;53.760;9.678;2023-10-09T00:21:59;10.57;94.89
65374;SHT31;52070;53.760;9.678;2023-10-09T00:24:32;10.61;94.89
65374;SHT31;52070;53.760;9.678;2023-10-09T00:26:59;10.60;94.84
65374;SHT31;52070;53.760;9.678;2023-10-09T00:29:37;10.61;94.84
65374;SHT31;52070;53.760;9.678;2023-10-09T00:32:12;10.56;94.86
65374;SHT31;52070;53.760;9.678;2023-10-09T00:34:48;10.51;94.84
65374;SHT31;52070;53.760;9.678;2023-10-09T00:37:17;10.53;94.94
65374;SHT31;52070;53.760;9.678;2023-10-09T00:39:48;10.54;95.05
65374;SHT31;52070;53.760;9.678;2023-10-09T00:42:21;10.57;95.11
65374;SHT31;52070;53.760;9.678;2023-10-09T00:44:53;10.56;95.16
65374;SHT31;52070;53.760;9.678;2023-10-09T00:47:23;10.56;95.22
65374;SHT31;52070;53.760;9.678;2023-10-09T00:49:54;10.54;95.26
65374;SHT31;52070;53.760;9.678;2023-10-09T00:52:31;10.48;95.25
65374;SHT31;52070;53.760;9.678;2023-10-09T00:55:00;10.46;95.30
65374;SHT31;52070;53.760;9.678;2023-10-09T00:57:34;10.44;95.31
65374;SHT31;52070;53.760;9.678;2023-10-09T01:00:04;10.44;95.36
65374;SHT31;52070;53.760;9.678;2023-10-09T01:02:40;10.47;95.37
65374;SHT31;52070;53.760;9.678;2023-10-09T01:05:10;10.43;95.43
65374;SHT31;52070;53.760;9.678;2023-10-09T01:07:47;10.40;95.45
65374;SHT31;52070;53.760;9.678;2023-10-09T01:10:14;10.41;95.47
65374;SHT31;52070;53.760;9.678;2023-10-09T01:12:43;10.41;95.49
65374;SHT31;52070;53.760;9.678;2023-10-09T01:15:12;10.38;95.51
65374;SHT31;52070;53.760;9.678;2023-10-09T01:18:03;10.41;95.60
65374;SHT31;52070;53.760;9.678;2023-10-09T01:20:33;10.41;95.62
65374;SHT31;52070;53.760;9.678;2023-10-09T01:23:11;10.37;95.59
65374;SHT31;52070;53.760;9.678;2023-10-09T01:25:38;10.36;95.59
65374;SHT31;52070;53.760;9.678;2023-10-09T01:28:11;10.40;95.59
65374;SHT31;52070;53.760;9.678;2023-10-09T01:30:42;10.38;95.60
65374;SHT31;52070;53.760;9.678;2023-10-09T01:33:10;10.38;95.61
65374;SHT31;52070;53.760;9.678;2023-10-09T01:35:48;10.37;95.63
65374;SHT31;52070;53.760;9.678;2023-10-09T01:38:18;10.38;95.67
65374;SHT31;52070;53.760;9.678;2023-10-09T01:40:56;10.38;95.68
65374;SHT31;52070;53.760;9.678;2023-10-09T01:43:30;10.40;95.73
65374;SHT31;52070;53.760;9.678;2023-10-09T01:46:00;10.38;95.75
65374;SHT31;52070;53.760;9.678;2023-10-09T01:48:30;10.36;95.72
65374;SHT31;52070;53.760;9.678;2023-10-09T01:51:02;10.34;95.66
65374;SHT31;52070;53.760;9.678;2023-10-09T01:53:33;10.36;95.66
65374;SHT31;52070;53.760;9.678;2023-10-09T01:56:10;10.34;95.68
65374;SHT31;52070;53.760;9.678;2023-10-09T01:58:42;10.33;95.67
65374;SHT31;52070;53.760;9.678;2023-10-09T02:01:12;10.32;95.73
65374;SHT31;52070;53.760;9.678;2023-10-09T02:03:39;10.32;95.72
65374;SHT31;52070;53.760;9.678;2023-10-09T02:06:09;10.30;95.74
65374;SHT31;52070;53.760;9.678;2023-10-09T02:08:53;10.27;95.76
65374;SHT31;52070;53.760;9.678;2023-10-09T02:11:20;10.29;95.79
65374;SHT31;52070;53.760;9.678;2023-10-09T02:14:03;10.36;95.81
65374;SHT31;52070;53.760;9.678;2023-10-09T02:16:42;10.33;95.72
65374;SHT31;52070;53.760;9.678;2023-10-09T02:19:09;10.36;95.66
65374;SHT31;52070;53.760;9.678;2023-10-09T02:21:54;10.30;95.60
65374;SHT31;52070;53.760;9.678;2023-10-09T02:24:25;10.29;95.60
65374;SHT31;52070;53.760;9.678;2023-10-09T02:27:15;10.30;95.68
65374;SHT31;52070;53.760;9.678;2023-10-09T02:29:56;10.32;95.76
65374;SHT31;52070;53.760;9.678;2023-10-09T02:32:24;10.33;95.75
65374;SHT31;52070;53.760;9.678;2023-10-09T02:34:53;10.30;95.76
65374;SHT31;52070;53.760;9.678;2023-10-09T02:37:21;10.29;95.77
65374;SHT31;52070;53.760;9.678;2023-10-09T02:39:52;10.30;95.79
65374;SHT31;52070;53.760;9.678;2023-10-09T02:42:19;10.29;95.80
65374;SHT31;52070;53.760;9.678;2023-10-09T02:44:49;10.33;95.84
65374;SHT31;52070;53.760;9.678;2023-10-09T02:47:17;10.32;95.77
65374;SHT31;52070;53.760;9.678;2023-10-09T02:49:50;10.30;95.70
65374;SHT31;52070;53.760;9.678;2023-10-09T02:52:18;10.24;95.67
65374;SHT31;52070;53.760;9.678;2023-10-09T02:54:52;10.24;95.70
65374;SHT31;52070;53.760;9.678;2023-10-09T02:57:26;10.27;95.79
65374;SHT31;52070;53.760;9.678;2023-10-09T03:00:02;10.24;95.77
65374;SHT31;52070;53.760;9.678;2023-10-09T03:02:34;10.21;95.79
65374;SHT31;52070;53.760;9.678;2023-10-09T03:05:02;10.21;95.80
65374;SHT31;52070;53.760;9.678;2023-10-09T03:07:30;10.20;95.81
65374;SHT31;52070;53.760;9.678;2023-10-09T03:09:58;10.14;95.85
65374;SHT31;52070;53.760;9.678;2023-10-09T03:12:25;10.13;95.79
65374;SHT31;52070;53.760;9.678;2023-10-09T03:14:54;10.10;95.80
65374;SHT31;52070;53.760;9.678;2023-10-09T03:17:24;10.04;95.82
65374;SHT31;52070;53.760;9.678;2023-10-09T03:19:51;10.06;95.81
65374;SHT31;52070;53.760;9.678;2023-10-09T03:22:18;10.12;95.80
65374;SHT31;52070;53.760;9.678;2023-10-09T03:24:45;10.09;95.69
65374;SHT31;52070;53.760;9.678;2023-10-09T03:27:13;10.16;95.63
65374;SHT31;52070;53.760;9.678;2023-10-09T03:29:41;10.06;95.41
65374;SHT31;52070;53.760;9.678;2023-10-09T03:32:14;10.03;95.37
65374;SHT31;52070;53.760;9.678;2023-10-09T03:34:41;9.99;95.41
65374;SHT31;52070;53.760;9.678;2023-10-09T03:37:09;10.00;95.47
65374;SHT31;52070;53.760;9.678;2023-10-09T03:39:47;10.02;95.59
65374;SHT31;52070;53.760;9.678;2023-10-09T03:42:18;10.04;95.64
65374;SHT31;52070;53.760;9.678;2023-10-09T03:44:46;10.06;95.72
65374;SHT31;52070;53.760;9.678;2023-10-09T03:47:18;10.03;95.74
65374;SHT31;52070;53.760;9.678;2023-10-09T03:49:48;10.00;95.79
65374;SHT31;52070;53.760;9.678;2023-10-09T03:52:17;10.09;95.75
65374;SHT31;52070;53.760;9.678;2023-10-09T03:54:44;9.99;95.68
65374;SHT31;52070;53.760;9.678;2023-10-09T03:57:12;10.02;95.62
65374;SHT31;52070;53.760;9.678;2023-10-09T03:59:45;9.99;95.56
65374;SHT31;52070;53.760;9.678;2023-10-09T04:02:12;9.96;95.56
65374;SHT31;52070;53.760;9.678;2023-10-09T04:04:40;9.93;95.58
65374;SHT31;52070;53.760;9.678;2023-10-09T04:07:11;9.95;95.62
65374;SHT31;52070;53.760;9.678;2023-10-09T04:09:38;9.97;95.76
65374;SHT31;52070;53.760;9.678;2023-10-09T04:12:10;9.99;95.79
65374;SHT31;52070;53.760;9.678;2023-10-09T04:14:48;9.95;95.76
65374;SHT31;52070;53.760;9.678;2023-10-09T04:17:20;9.93;95.71
65374;SHT31;52070;53.760;9.678;2023-10-09T04:20:00;9.95;95.69
65374;SHT31;52070;53.760;9.678;2023-10-09T04:22:44;9.92;95.75
65374;SHT31;52070;53.760;9.678;2023-10-09T04:25:16;9.90;95.77
65374;SHT31;52070;53.760;9.678;2023-10-09T04:27:52;9.87;95.78
65374;SHT31;52070;53.760;9.678;2023-10-09T04:30:27;9.92;95.80
65374;SHT31;52070;53.760;9.678;2023-10-09T04:32:54;9.87;95.82
65374;SHT31;52070;53.760;9.678;2023-10-09T04:35:30;9.85;95.77
65374;SHT31;52070;53.760;9.678;2023-10-09T04:37:57;9.86;95.77
65374;SHT31;52070;53.760;9.678;2023-10-09T04:40:30;9.79;95.80
65374;SHT31;52070;53.760;9.678;2023-10-09T04:43:17;9.85;95.82
65374;SHT31;52070;53.760;9.678;2023-10-09T04:45:48;9.83;95.84
65374;SHT31;52070;53.760;9.678;2023-10-09T04:48:33;9.83;95.86
65374;SHT31;52070;53.760;9.678;2023-10-09T04:51:04;9.85;95.86
65374;SHT31;52070;53.760;9.678;2023-10-09T04:54:00;9.82;95.81
65374;SHT31;52070;53.760;9.678;2023-10-09T04:56:39;9.83;95.84
65374;SHT31;52070;53.760;9.678;2023-10-09T04:59:18;9.78;95.79
65374;SHT31;52070;53.760;9.678;2023-10-09T05:01:46;9.76;95.81
65374;SHT31;52070;53.760;9.678;2023-10-09T05:04:23;9.76;95.85
65374;SHT31;52070;53.760;9.678;2023-10-09T05:07:07;9.82;95.86
65374;SHT31;52070;53.760;9.678;2023-10-09T05:09:50;9.79;95.85
65374;SHT31;52070;53.760;9.678;2023-10-09T05:12:22;9.76;95.87
65374;SHT31;52070;53.760;9.678;2023-10-09T05:14:52;9.76;95.86
65374;SHT31;52070;53.760;9.678;2023-10-09T05:17:36;9.75;95.88
65374;SHT31;52070;53.760;9.678;2023-10-09T05:20:05;9.68;95.79
65374;SHT31;52070;53.760;9.678;2023-10-09T05:22:49;9.68;95.73
65374;SHT31;52070;53.760;9.678;2023-10-09T05:25:45;9.73;95.66
65374;SHT31;52070;53.760;9.678;2023-10-09T05:28:21;9.65;95.65
65374;SHT31;52070;53.760;9.678;2023-10-09T05:30:51;9.68;95.66
65374;SHT31;52070;53.760;9.678;2023-10-09T05:33:29;9.62;95.57
65374;SHT31;52070;53.760;9.678;2023-10-09T05:36:01;9.63;95.49
65374;SHT31;52070;53.760;9.678;2023-10-09T05:39:01;9.61;95.52
65374;SHT31;52070;53.760;9.678;2023-10-09T05:41:47;9.53;95.44
65374;SHT31;52070;53.760;9.678;2023-10-09T05:44:19;9.56;95.41
65374;SHT31;52070;53.760;9.678;2023-10-09T05:47:03;9.58;95.57
65374;SHT31;52070;53.760;9.678;2023-10-09T05:49:49;9.56;95.64
65374;SHT31;52070;53.760;9.678;2023-10-09T05:52:44;9.52;95.79
65374;SHT31;52070;53.760;9.678;2023-10-09T05:55:29;9.51;95.83
65374;SHT31;52070;53.760;9.678;2023-10-09T05:58:17;9.56;95.92
65374;SHT31;52070;53.760;9.678;2023-10-09T06:01:02;9.62;96.02
65374;SHT31;52070;53.760;9.678;2023-10-09T06:03:46;9.63;96.11
65374;SHT31;52070;53.760;9.678;2023-10-09T06:06:21;9.66;96.22
65374;SHT31;52070;53.760;9.678;2023-10-09T06:09:01;9.68;96.27
65374;SHT31;52070;53.760;9.678;2023-10-09T06:11:46;9.66;96.31
65374;SHT31;52070;53.760;9.678;2023-10-09T06:14:16;9.65;96.33
65374;SHT31;52070;53.760;9.678;2023-10-09T06:16:51;9.63;96.35
65374;SHT31;52070;53.760;9.678;2023-10-09T06:19:27;9.59;96.34
65374;SHT31;52070;53.760;9.678;2023-10-09T06:21:59;9.63;96.40
65374;SHT31;52070;53.760;9.678;2023-10-09T06:24:43;9.66;96.44
65374;SHT31;52070;53.760;9.678;2023-10-09T06:27:21;9.65;96.48
65374;SHT31;52070;53.760;9.678;2023-10-09T06:29:53;9.62;96.48
65374;SHT31;52070;53.760;9.678;2023-10-09T06:32:39;9.66;96.50
65374;SHT31;52070;53.760;9.678;2023-10-09T06:35:16;9.62;96.51
65374;SHT31;52070;53.760;9.678;2023-10-09T06:37:45;9.62;96.51
65374;SHT31;52070;53.760;9.678;2023-10-09T06:40:34;9.56;96.52
65374;SHT31;52070;53.760;9.678;2023-10-09T06:43:18;9.61;96.57
65374;SHT31;52070;53.760;9.678;2023-10-09T06:45:53;9.66;96.63
65374;SHT31;52070;53.760;9.678;2023-10-09T06:48:24;9.68;96.67
65374;SHT31;52070;53.760;9.678;2023-10-09T06:51:11;9.69;96.71
65374;SHT31;52070;53.760;9.678;2023-10-09T06:54:04;9.68;96.71
65374;SHT31;52070;53.760;9.678;2023-10-09T06:56:32;9.69;96.74
65374;SHT31;52070;53.760;9.678;2023-10-09T06:59:14;9.71;96.78
65374;SHT31;52070;53.760;9.678;2023-10-09T07:01:48;9.69;96.79
65374;SHT31;52070;53.760;9.678;2023-10-09T07:04:37;9.75;96.83
65374;SHT31;52070;53.760;9.678;2023-10-09T07:07:13;9.73;96.82
65374;SHT31;52070;53.760;9.678;2023-10-09T07:09:43;9.76;96.85
65374;SHT31;52070;53.760;9.678;2023-10-09T07:12:32;9.82;96.85
65374;SHT31;52070;53.760;9.678;2023-10-09T07:14:59;9.85;96.93
65374;SHT31;52070;53.760;9.678;2023-10-09T07:17:44;9.86;96.93
65374;SHT31;52070;53.760;9.678;2023-10-09T07:20:12;9.82;96.98
65374;SHT31;52070;53.760;9.678;2023-10-09T07:23:02;9.82;97.00
65374;SHT31;52070;53.760;9.678;2023-10-09T07:25:42;9.83;97.00
65374;SHT31;52070;53.760;9.678;2023-10-09T07:28:21;9.87;97.06
65374;SHT31;52070;53.760;9.678;2023-10-09T07:31:16;9.81;97.05
65374;SHT31;52070;53.760;9.678;2023-10-09T07:33:51;9.86;97.05
65374;SHT31;52070;53.760;9.678;2023-10-09T07:36:23;9.87;97.05
65374;SHT31;52070;53.760;9.678;2023-10-09T07:39:01;9.95;97.12
65374;SHT31;52070;53.760;9.678;2023-10-09T07:41:32;9.95;97.12
65374;SHT31;52070;53.760;9.678;2023-10-09T07:44:06;10.00;97.18
65374;SHT31;52070;53.760;9.678;2023-10-09T07:47:03;10.04;97.20
65374;SHT31;52070;53.760;9.678;2023-10-09T07:49:48;10.12;97.21
65374;SHT31;52070;53.760;9.678;2023-10-09T07:52:20;10.18;97.27
65374;SHT31;52070;53.760;9.678;2023-10-09T07:54:49;10.18;97.30
65374;SHT31;52070;53.760;9.678;2023-10-09T07:57:30;10.26;97.29
65374;SHT31;52070;53.760;9.678;2023-10-09T08:00:05;10.27;97.30
65374;SHT31;52070;53.760;9.678;2023-10-09T08:03:00;10.33;97.32
65374;SHT31;52070;53.760;9.678;2023-10-09T08:05:29;10.33;97.35
65374;SHT31;52070;53.760;9.678;2023-10-09T08:08:01;10.33;97.30
65374;SHT31;52070;53.760;9.678;2023-10-09T08:11:07;10.32;97.34
65374;SHT31;52070;53.760;9.678;2023-10-09T08:13:53;10.37;97.37
65374;SHT31;52070;53.760;9.678;2023-10-09T08:16:28;10.40;97.38
65374;SHT31;52070;53.760;9.678;2023-10-09T08:19:02;10.41;97.41
65374;SHT31;52070;53.760;9.678;2023-10-09T08:21:47;10.43;97.37
65374;SHT31;52070;53.760;9.678;2023-10-09T08:24:32;10.46;97.41
65374;SHT31;52070;53.760;9.678;2023-10-09T08:27:06;10.47;97.41
65374;SHT31;52070;53.760;9.678;2023-10-09T08:29:52;10.44;97.41
65374;SHT31;52070;53.760;9.678;2023-10-09T08:32:38;10.47;97.39
65374;SHT31;52070;53.760;9.678;2023-10-09T08:35:06;10.54;97.40
65374;SHT31;52070;53.760;9.678;2023-10-09T08:37:53;10.58;97.37
65374;SHT31;52070;53.760;9.678;2023-10-09T08:40:20;10.58;97.43
65374;SHT31;52070;53.760;9.678;2023-10-09T08:42:53;10.64;97.43
65374;SHT31;52070;53.760;9.678;2023-10-09T08:45:23;10.67;97.44
65374;SHT31;52070;53.760;9.678;2023-10-09T08:47:53;10.69;97.43
65374;SHT31;52070;53.760;9.678;2023-10-09T08:50:21;10.72;97.48
65374;SHT31;52070;53.760;9.678;2023-10-09T08:52:48;10.68;97.41
65374;SHT31;52070;53.760;9.678;2023-10-09T08:55:16;10.68;97.42
65374;SHT31;52070;53.760;9.678;2023-10-09T08:57:43;10.69;97.40
65374;SHT31;52070;53.760;9.678;2023-10-09T09:00:16;10.77;97.42
65374;SHT31;52070;53.760;9.678;2023-10-09T09:02:48;10.79;97.44
65374;SHT31;52070;53.760;9.678;2023-10-09T09:05:18;10.82;97.42
65374;SHT31;52070;53.760;9.678;2023-10-09T09:07:46;10.87;97.44
65374;SHT31;52070;53.760;9.678;2023-10-09T09:10:13;10.89;97.45
65374;SHT31;52070;53.760;9.678;2023-10-09T09:12:44;10.95;97.49
65374;SHT31;52070;53.760;9.678;2023-10-09T09:15:14;10.95;97.45
65374;SHT31;52070;53.760;9.678;2023-10-09T09:17:46;11.01;97.51
65374;SHT31;52070;53.760;9.678;2023-10-09T09:20:23;11.02;97.49
65374;SHT31;52070;53.760;9.678;2023-10-09T09:22:55;10.99;97.52
65374;SHT31;52070;53.760;9.678;2023-10-09T09:25:22;11.02;97.48
65374;SHT31;52070;53.760;9.678;2023-10-09T09:27:51;11.04;97.48
65374;SHT31;52070;53.760;9.678;2023-10-09T09:30:24;11.04;97.47
65374;SHT31;52070;53.760;9.678;2023-10-09T09:32:57;11.08;97.46
65374;SHT31;52070;53.760;9.678;2023-10-09T09:35:57;11.11;97.46
65374;SHT31;52070;53.760;9.678;2023-10-09T09:38:26;11.14;97.44
65374;SHT31;52070;53.760;9.678;2023-10-09T09:40:56;11.18;97.47
65374;SHT31;52070;53.760;9.678;2023-10-09T09:43:26;11.16;97.47
65374;SHT31;52070;53.760;9.678;2023-10-09T09:45:56;11.19;97.45
65374;SHT31;52070;53.760;9.678;2023-10-09T09:48:24;11.25;97.48
65374;SHT31;52070;53.760;9.678;2023-10-09T09:50:52;11.29;97.45
65374;SHT31;52070;53.760;9.678;2023-10-09T09:53:21;11.33;97.45
65374;SHT31;52070;53.760;9.678;2023-10-09T09:55:52;11.36;97.47
65374;SHT31;52070;53.760;9.678;2023-10-09T09:58:22;11.36;97.45
65374;SHT31;52070;53.760;9.678;2023-10-09T10:00:52;11.36;97.46
65374;SHT31;52070;53.760;9.678;2023-10-09T10:03:24;11.39;97.42
65374;SHT31;52070;53.760;9.678;2023-10-09T10:05:54;11.43;97.44
65374;SHT31;52070;53.760;9.678;2023-10-09T10:08:24;11.46;97.47
65374;SHT31;52070;53.760;9.678;2023-10-09T10:10:58;11.52;97.49
65374;SHT31;52070;53.760;9.678;2023-10-09T10:13:55;11.52;97.48
65374;SHT31;52070;53.760;9.678;2023-10-09T10:16:25;11.49;97.47
65374;SHT31;52070;53.760;9.678;2023-10-09T10:19:01;11.53;97.45
65374;SHT31;52070;53.760;9.678;2023-10-09T10:21:47;11.62;97.47
65374;SHT31;52070;53.760;9.678;2023-10-09T10:24:41;11.67;97.49
65374;SHT31;52070;53.760;9.678;2023-10-09T10:27:28;11.73;97.46
65374;SHT31;52070;53.760;9.678;2023-10-09T10:30:31;11.84;97.44
65374;SHT31;52070;53.760;9.678;2023-10-09T10:33:03;11.96;97.46
65374;SHT31;52070;53.760;9.678;2023-10-09T10:35:38;12.03;97.42
65374;SHT31;52070;53.760;9.678;2023-10-09T10:38:29;12.04;97.44
65374;SHT31;52070;53.760;9.678;2023-10-09T10:41:11;12.04;97.40
65374;SHT31;52070;53.760;9.678;2023-10-09T10:43:40;12.06;97.39
65374;SHT31;52070;53.760;9.678;2023-10-09T10:46:25;12.08;97.30
65374;SHT31;52070;53.760;9.678;2023-10-09T10:49:05;12.10;97.30
65374;SHT31;52070;53.760;9.678;2023-10-09T10:51:46;12.07;97.23
65374;SHT31;52070;53.760;9.678;2023-10-09T10:54:22;12.04;97.18
65374;SHT31;52070;53.760;9.678;2023-10-09T10:57:15;12.06;97.13
65374;SHT31;52070;53.760;9.678;2023-10-09T10:59:55;12.13;97.14
65374;SHT31;52070;53.760;9.678;2023-10-09T11:02:39;12.18;97.18
65374;SHT31;52070;53.760;9.678;2023-10-09T11:05:07;12.21;97.21
65374;SHT31;52070;53.760;9.678;2023-10-09T11:07:50;12.28;97.25
65374;SHT31;52070;53.760;9.678;2023-10-09T11:10:22;12.34;97.25
65374;SHT31;52070;53.760;9.678;2023-10-09T11:12:56;12.42;97.20
65374;SHT31;52070;53.760;9.678;2023-10-09T11:15:38;12.37;97.15
65374;SHT31;52070;53.760;9.678;2023-10-09T11:18:11;12.40;97.07
65374;SHT31;52070;53.760;9.678;2023-10-09T11:20:49;12.40;96.99
65374;SHT31;52070;53.760;9.678;2023-10-09T11:23:46;12.38;97.01
65374;SHT31;52070;53.760;9.678;2023-10-09T11:26:25;12.40;97.03
65374;SHT31;52070;53.760;9.678;2023-10-09T11:29:09;12.48;97.02
65374;SHT31;52070;53.760;9.678;2023-10-09T11:32:02;12.48;97.03
65374;SHT31;52070;53.760;9.678;2023-10-09T11:34:31;12.52;97.02
65374;SHT31;52070;53.760;9.678;2023-10-09T11:37:02;12.54;97.02
65374;SHT31;52070;53.760;9.678;2023-10-09T11:39:29;12.58;97.05
65374;SHT31;52070;53.760;9.678;2023-10-09T11:42:02;12.61;97.07
65374;SHT31;52070;53.760;9.678;2023-10-09T11:44:41;12.62;97.04
65374;SHT31;52070;53.760;9.678;2023-10-09T11:47:11;12.65;97.01
65374;SHT31;52070;53.760;9.678;2023-10-09T11:49:50;12.59;96.96
65374;SHT31;52070;53.760;9.678;2023-10-09T11:52:36;12.62;96.97
65374;SHT31;52070;53.760;9.678;2023-10-09T11:55:04;12.72;96.99
65374;SHT31;52070;53.760;9.678;2023-10-09T11:57:32;12.78;97.00
65374;SHT31;52070;53.760;9.678;2023-10-09T12:00:03;12.82;97.05
65374;SHT31;52070;53.760;9.678;2023-10-09T12:02:50;12.79;97.03
65374;SHT31;52070;53.760;9.678;2023-10-09T12:05:18;12.88;97.02
65374;SHT31;52070;53.760;9.678;2023-10-09T12:07:45;12.91;96.98
65374;SHT31;52070;53.760;9.678;2023-10-09T12:10:12;12.99;96.97
65374;SHT31;52070;53.760;9.678;2023-10-09T12:12:50;12.98;96.95
65374;SHT31;52070;53.760;9.678;2023-10-09T12:15:19;13.00;96.89
65374;SHT31;52070;53.760;9.678;2023-10-09T12:17:46;12.98;96.85
65374;SHT31;52070;53.760;9.678;2023-10-09T12:20:14;12.96;96.77
65374;SHT31;52070;53.760;9.678;2023-10-09T12:22:57;12.96;96.76
65374;SHT31;52070;53.760;9.678;2023-10-09T12:25:24;12.99;96.70
65374;SHT31;52070;53.760;9.678;2023-10-09T12:27:52;12.96;96.70
65374;SHT31;52070;53.760;9.678;2023-10-09T12:30:24;12.93;96.70
65374;SHT31;52070;53.760;9.678;2023-10-09T12:32:53;12.87;96.61
65374;SHT31;52070;53.760;9.678;2023-10-09T12:35:23;12.85;96.62
65374;SHT31;52070;53.760;9.678;2023-10-09T12:37:51;12.85;96.57
65374;SHT31;52070;53.760;9.678;2023-10-09T12:40:21;12.88;96.58
65374;SHT31;52070;53.760;9.678;2023-10-09T12:42:54;12.89;96.62
65374;SHT31;52070;53.760;9.678;2023-10-09T12:45:26;12.92;96.68
65374;SHT31;52070;53.760;9.678;2023-10-09T12:47:58;12.99;96.73
65374;SHT31;52070;53.760;9.678;2023-10-09T12:50:25;13.03;96.77
65374;SHT31;52070;53.760;9.678;2023-10-09T12:52:59;13.05;96.81
65374;SHT31;52070;53.760;9.678;2023-10-09T12:55:34;13.09;96.81
65374;SHT31;52070;53.760;9.678;2023-10-09T12:58:07;13.15;96.86
65374;SHT31;52070;53.760;9.678;2023-10-09T13:00:36;13.18;96.88
65374;SHT31;52070;53.760;9.678;2023-10-09T13:03:06;13.20;96.89
65374;SHT31;52070;53.760;9.678;2023-10-09T13:05:46;13.26;96.87
65374;SHT31;52070;53.760;9.678;2023-10-09T13:08:21;13.29;96.89
65374;SHT31;52070;53.760;9.678;2023-10-09T13:10:49;13.29;96.89
65374;SHT31;52070;53.760;9.678;2023-10-09T13:13:25;13.29;96.83
65374;SHT31;52070;53.760;9.678;2023-10-09T13:16:10;13.33;96.83
65374;SHT31;52070;53.760;9.678;2023-10-09T13:18:46;13.38;96.86
65374;SHT31;52070;53.760;9.678;2023-10-09T13:21:16;13.38;96.87
65374;SHT31;52070;53.760;9.678;2023-10-09T13:23:43;13.36;96.84
65374;SHT31;52070;53.760;9.678;2023-10-09T13:26:13;13.36;96.80
65374;SHT31;52070;53.760;9.678;2023-10-09T13:28:51;13.39;96.82
65374;SHT31;52070;53.760;9.678;2023-10-09T13:31:20;13.40;96.77
65374;SHT31;52070;53.760;9.678;2023-10-09T13:33:49;13.43;96.81
65374;SHT31;52070;53.760;9.678;2023-10-09T13:36:20;13.42;96.85
65374;SHT31;52070;53.760;9.678;2023-10-09T13:38:52;13.46;96.86
65374;SHT31;52070;53.760;9.678;2023-10-09T13:41:20;13.52;96.88
65374;SHT31;52070;53.760;9.678;2023-10-09T13:43:47;13.56;96.91
65374;SHT31;52070;53.760;9.678;2023-10-09T13:46:18;13.63;96.92
65374;SHT31;52070;53.760;9.678;2023-10-09T13:48:45;13.64;96.92
65374;SHT31;52070;53.760;9.678;2023-10-09T13:51:15;13.71;96.92
65374;SHT31;52070;53.760;9.678;2023-10-09T13:53:44;13.81;96.92
65374;SHT31;52070;53.760;9.678;2023-10-09T13:56:13;13.85;96.94
65374;SHT31;52070;53.760;9.678;2023-10-09T13:58:49;13.90;96.91
65374;SHT31;52070;53.760;9.678;2023-10-09T14:01:16;13.88;96.85
65374;SHT31;52070;53.760;9.678;2023-10-09T14:03:55;13.91;96.82
65374;SHT31;52070;53.760;9.678;2023-10-09T14:06:22;13.91;96.81
65374;SHT31;52070;53.760;9.678;2023-10-09T14:08:58;13.94;96.77
65374;SHT31;52070;53.760;9.678;2023-10-09T14:11:25;13.97;96.81
65374;SHT31;52070;53.760;9.678;2023-10-09T14:13:53;13.87;96.76
65374;SHT31;52070;53.760;9.678;2023-10-09T14:16:20;13.83;96.67
65374;SHT31;52070;53.760;9.678;2023-10-09T14:18:55;13.90;96.70
65374;SHT31;52070;53.760;9.678;2023-10-09T14:21:26;13.97;96.74
65374;SHT31;52070;53.760;9.678;2023-10-09T14:23:55;14.00;96.81
65374;SHT31;52070;53.760;9.678;2023-10-09T14:26:27;14.01;96.85
65374;SHT31;52070;53.760;9.678;2023-10-09T14:28:56;14.00;96.80
65374;SHT31;52070;53.760;9.678;2023-10-09T14:31:24;13.97;96.82
65374;SHT31;52070;53.760;9.678;2023-10-09T14:33:55;13.98;96.83
65374;SHT31;52070;53.760;9.678;2023-10-09T14:36:23;13.90;96.84
65374;SHT31;52070;53.760;9.678;2023-10-09T14:38:59;13.95;96.81
65374;SHT31;52070;53.760;9.678;2023-10-09T14:41:27;14.01;96.89
65374;SHT31;52070;53.760;9.678;2023-10-09T14:43:59;14.01;96.91
65374;SHT31;52070;53.760;9.678;2023-10-09T14:46:26;14.00;96.92
65374;SHT31;52070;53.760;9.678;2023-10-09T14:48:55;14.01;96.92
65374;SHT31;52070;53.760;9.678;2023-10-09T14:51:23;14.07;96.94
65374;SHT31;52070;53.760;9.678;2023-10-09T14:53:54;14.07;96.93
65374;SHT31;52070;53.760;9.678;2023-10-09T14:56:26;14.14;96.91
65374;SHT31;52070;53.760;9.678;2023-10-09T14:58:56;14.14;96.94
65374;SHT31;52070;53.760;9.678;2023-10-09T15:01:24;14.15;96.92
65374;SHT31;52070;53.760;9.678;2023-10-09T15:03:58;14.20;96.96
65374;SHT31;52070;53.760;9.678;2023-10-09T15:06:26;14.20;96.97
65374;SHT31;52070;53.760;9.678;2023-10-09T15:08:56;14.22;96.96
65374;SHT31;52070;53.760;9.678;2023-10-09T15:11:24;14.20;96.96
65374;SHT31;52070;53.760;9.678;2023-10-09T15:13:51;14.22;96.91
65374;SHT31;52070;53.760;9.678;2023-10-09T15:16:19;14.21;96.95
65374;SHT31;52070;53.760;9.678;2023-10-09T15:18:47;14.24;96.92
65374;SHT31;52070;53.760;9.678;2023-10-09T15:21:19;14.24;96.93
65374;SHT31;52070;53.760;9.678;2023-10-09T15:23:49;14.28;96.95
65374;SHT31;52070;53.760;9.678;2023-10-09T15:26:20;14.24;96.92
65374;SHT31;52070;53.760;9.678;2023-10-09T15:28:48;14.28;96.91
65374;SHT31;52070;53.760;9.678;2023-10-09T15:31:16;14.28;96.95
65374;SHT31;52070;53.760;9.678;2023-10-09T15:33:43;14.31;97.00
65374;SHT31;52070;53.760;9.678;2023-10-09T15:36:13;14.34;96.99
65374;SHT31;52070;53.760;9.678;2023-10-09T15:38:44;14.32;97.00
65374;SHT31;52070;53.760;9.678;2023-10-09T15:41:10;14.36;97.03
65374;SHT31;52070;53.760;9.678;2023-10-09T15:43:39;14.32;97.08
65374;SHT31;52070;53.760;9.678;2023-10-09T15:46:11;14.32;97.14
65374;SHT31;52070;53.760;9.678;2023-10-09T15:48:40;14.34;97.16
65374;SHT31;52070;53.760;9.678;2023-10-09T15:51:11;14.35;97.20
65374;SHT31;52070;53.760;9.678;2023-10-09T15:53:41;14.39;97.25
65374;SHT31;52070;53.760;9.678;2023-10-09T15:56:10;14.41;97.23
65374;SHT31;52070;53.760;9.678;2023-10-09T15:58:39;14.51;97.29
65374;SHT31;52070;53.760;9.678;2023-10-09T16:01:10;14.51;97.32
65374;SHT31;52070;53.760;9.678;2023-10-09T16:03:40;14.55;97.40
65374;SHT31;52070;53.760;9.678;2023-10-09T16:06:08;14.59;97.46
65374;SHT31;52070;53.760;9.678;2023-10-09T16:08:38;14.62;97.48
65374;SHT31;52070;53.760;9.678;2023-10-09T16:11:05;14.68;97.54
65374;SHT31;52070;53.760;9.678;2023-10-09T16:13:34;14.72;97.61
65374;SHT31;52070;53.760;9.678;2023-10-09T16:16:04;14.73;97.62
65374;SHT31;52070;53.760;9.678;2023-10-09T16:18:33;14.79;97.63